sensor_id;sensor_type;location;lat;lon;timestamp;pressure;altitude;pressure_sealevel;temperature
61189;BMP280;47054;39.716;2.904;2023-02-28T00:00:24;99471.94;;;14.48
61189;BMP280;47054;39.716;2.904;2023-02-28T00:03:09;99466.63;;;14.51
61189;BMP280;47054;39.716;2.904;2023-02-28T00:05:54;99474.63;;;14.51
61189;BMP280;47054;39.716;2.904;2023-02-28T00:08:39;99479.97;;;14.51
61189;BMP280;47054;39.716;2.904;2023-02-28T00:11:24;99469.66;;;14.50
61189;BMP280;47054;39.716;2.904;2023-02-28T00:14:08;99462.72;;;14.45
61189;BMP280;47054;39.716;2.904;2023-02-28T00:16:53;99463.19;;;14.51
61189;BMP280;47054;39.716;2.904;2023-02-28T00:19:37;99458.19;;;14.49
61189;BMP280;47054;39.716;2.904;2023-02-28T00:22:22;99466.97;;;14.50
61189;BMP280;47054;39.716;2.904;2023-02-28T00:25:08;99474.97;;;14.50
61189;BMP280;47054;39.716;2.904;2023-02-28T00:27:53;99443.34;;;14.48
61189;BMP280;47054;39.716;2.904;2023-02-28T00:30:37;99454.75;;;14.49
61189;BMP280;47054;39.716;2.904;2023-02-28T00:33:22;99464.69;;;14.48
61189;BMP280;47054;39.716;2.904;2023-02-28T00:36:09;99467.34;;;14.48
61189;BMP280;47054;39.716;2.904;2023-02-28T00:38:54;99465.81;;;14.47
61189;BMP280;47054;39.716;2.904;2023-02-28T00:41:39;99462.38;;;14.47
61189;BMP280;47054;39.716;2.904;2023-02-28T00:44:25;99470.38;;;14.47
61189;BMP280;47054;39.716;2.904;2023-02-28T00:47:11;99468.84;;;14.46
61189;BMP280;47054;39.716;2.904;2023-02-28T00:49:55;99464.63;;;14.45
61189;BMP280;47054;39.716;2.904;2023-02-28T00:52:40;99475.28;;;14.45
61189;BMP280;47054;39.716;2.904;2023-02-28T00:55:24;99483.28;;;14.45
61189;BMP280;47054;39.716;2.904;2023-02-28T00:58:09;99479.09;;;14.44
61189;BMP280;47054;39.716;2.904;2023-02-28T01:00:54;99484.41;;;14.40
61189;BMP280;47054;39.716;2.904;2023-02-28T01:03:38;99487.88;;;14.44
61189;BMP280;47054;39.716;2.904;2023-02-28T01:06:23;99482.13;;;14.42
61189;BMP280;47054;39.716;2.904;2023-02-28T01:09:07;99479.47;;;14.42
61189;BMP280;47054;39.716;2.904;2023-02-28T01:11:52;99493.91;;;14.41
61189;BMP280;47054;39.716;2.904;2023-02-28T01:14:40;99493.91;;;14.41
61189;BMP280;47054;39.716;2.904;2023-02-28T01:17:25;99477.16;;;14.41
61189;BMP280;47054;39.716;2.904;2023-02-28T01:20:10;99496.59;;;14.41
61189;BMP280;47054;39.716;2.904;2023-02-28T01:22:55;99489.34;;;14.42
61189;BMP280;47054;39.716;2.904;2023-02-28T01:25:39;99492.41;;;14.40
61189;BMP280;47054;39.716;2.904;2023-02-28T01:28:24;99488.97;;;14.40
61189;BMP280;47054;39.716;2.904;2023-02-28T01:31:09;99476.75;;;14.39
61189;BMP280;47054;39.716;2.904;2023-02-28T01:33:55;99469.09;;;14.37
61189;BMP280;47054;39.716;2.904;2023-02-28T01:36:40;99465.28;;;14.38
61189;BMP280;47054;39.716;2.904;2023-02-28T01:39:25;99473.28;;;14.38
61189;BMP280;47054;39.716;2.904;2023-02-28T01:42:10;99461.88;;;14.38
61189;BMP280;47054;39.716;2.904;2023-02-28T01:47:46;99471.00;;;14.37
61189;BMP280;47054;39.716;2.904;2023-02-28T01:50:39;99479.00;;;14.37
61189;BMP280;47054;39.716;2.904;2023-02-28T01:53:36;99457.19;;;14.31
61189;BMP280;47054;39.716;2.904;2023-02-28T01:56:27;99467.94;;;14.35
61189;BMP280;47054;39.716;2.904;2023-02-28T01:59:21;99476.69;;;14.35
61189;BMP280;47054;39.716;2.904;2023-02-28T02:02:06;99470.97;;;14.33
61189;BMP280;47054;39.716;2.904;2023-02-28T02:04:54;99464.50;;;14.34
61189;BMP280;47054;39.716;2.904;2023-02-28T02:07:41;99453.06;;;14.34
61189;BMP280;47054;39.716;2.904;2023-02-28T02:10:41;99458.41;;;14.34
61189;BMP280;47054;39.716;2.904;2023-02-28T02:23:08;99432.81;;;14.29
61189;BMP280;47054;39.716;2.904;2023-02-28T02:36:35;99393.13;;;14.24
61189;BMP280;47054;39.716;2.904;2023-02-28T02:40:12;99391.66;;;14.27
61189;BMP280;47054;39.716;2.904;2023-02-28T02:46:04;99393.91;;;14.25
61189;BMP280;47054;39.716;2.904;2023-02-28T02:48:47;99404.16;;;14.23
61189;BMP280;47054;39.716;2.904;2023-02-28T02:51:33;99415.25;;;14.25
61189;BMP280;47054;39.716;2.904;2023-02-28T02:54:21;99408.75;;;14.26
61189;BMP280;47054;39.716;2.904;2023-02-28T02:57:11;99395.44;;;14.26
61189;BMP280;47054;39.716;2.904;2023-02-28T02:59:58;99387.06;;;14.24
61189;BMP280;47054;39.716;2.904;2023-02-28T03:02:46;99384.00;;;14.25
61189;BMP280;47054;39.716;2.904;2023-02-28T03:05:48;99382.09;;;14.26
61189;BMP280;47054;39.716;2.904;2023-02-28T03:08:36;99369.16;;;14.24
61189;BMP280;47054;39.716;2.904;2023-02-28T03:11:21;99385.50;;;14.23
61189;BMP280;47054;39.716;2.904;2023-02-28T03:20:18;99391.63;;;14.23
61189;BMP280;47054;39.716;2.904;2023-02-28T03:23:16;99393.50;;;14.23
61189;BMP280;47054;39.716;2.904;2023-02-28T03:26:12;99400.38;;;14.24
61189;BMP280;47054;39.716;2.904;2023-02-28T03:29:22;99399.97;;;14.22
61189;BMP280;47054;39.716;2.904;2023-02-28T03:35:01;99379.75;;;14.21
61189;BMP280;47054;39.716;2.904;2023-02-28T03:37:53;99379.00;;;14.20
61189;BMP280;47054;39.716;2.904;2023-02-28T03:40:45;99372.91;;;14.20
61189;BMP280;47054;39.716;2.904;2023-02-28T03:43:34;99391.97;;;14.22
61189;BMP280;47054;39.716;2.904;2023-02-28T03:46:24;99364.50;;;14.18
61189;BMP280;47054;39.716;2.904;2023-02-28T03:49:15;99355.75;;;14.21
61189;BMP280;47054;39.716;2.904;2023-02-28T03:52:03;99348.91;;;14.20
61189;BMP280;47054;39.716;2.904;2023-02-28T03:54:53;99353.47;;;14.19
61189;BMP280;47054;39.716;2.904;2023-02-28T03:57:56;99356.13;;;14.19
61189;BMP280;47054;39.716;2.904;2023-02-28T04:00:54;99357.28;;;14.18
61189;BMP280;47054;39.716;2.904;2023-02-28T04:03:39;99363.72;;;14.17
61189;BMP280;47054;39.716;2.904;2023-02-28T04:06:25;99372.50;;;14.18
61189;BMP280;47054;39.716;2.904;2023-02-28T04:09:12;99377.81;;;14.18
61189;BMP280;47054;39.716;2.904;2023-02-28T04:11:57;99383.16;;;14.18
61189;BMP280;47054;39.716;2.904;2023-02-28T04:14:42;99383.16;;;14.18
61189;BMP280;47054;39.716;2.904;2023-02-28T04:17:26;99383.53;;;14.16
61189;BMP280;47054;39.716;2.904;2023-02-28T04:20:12;99382.38;;;14.17
61189;BMP280;47054;39.716;2.904;2023-02-28T04:22:56;99381.63;;;14.17
61189;BMP280;47054;39.716;2.904;2023-02-28T04:25:41;99384.28;;;14.17
61189;BMP280;47054;39.716;2.904;2023-02-28T04:28:26;99377.41;;;14.16
61189;BMP280;47054;39.716;2.904;2023-02-28T04:31:10;99364.09;;;14.16
61189;BMP280;47054;39.716;2.904;2023-02-28T04:33:54;99365.63;;;14.17
61189;BMP280;47054;39.716;2.904;2023-02-28T04:36:40;99374.75;;;14.16
61189;BMP280;47054;39.716;2.904;2023-02-28T04:39:24;99369.41;;;14.16
61189;BMP280;47054;39.716;2.904;2023-02-28T04:42:09;99375.53;;;14.16
61189;BMP280;47054;39.716;2.904;2023-02-28T04:44:54;99383.53;;;14.16
61189;BMP280;47054;39.716;2.904;2023-02-28T04:47:38;99369.00;;;14.14
61189;BMP280;47054;39.716;2.904;2023-02-28T04:50:23;99380.09;;;14.16
61189;BMP280;47054;39.716;2.904;2023-02-28T04:53:08;99371.66;;;14.14
61189;BMP280;47054;39.716;2.904;2023-02-28T04:55:52;99372.44;;;14.14
61189;BMP280;47054;39.716;2.904;2023-02-28T04:58:37;99364.84;;;14.13
61189;BMP280;47054;39.716;2.904;2023-02-28T05:01:28;99371.31;;;14.15
61189;BMP280;47054;39.716;2.904;2023-02-28T05:04:14;99373.56;;;14.13
61189;BMP280;47054;39.716;2.904;2023-02-28T05:06:59;99372.06;;;14.12
61189;BMP280;47054;39.716;2.904;2023-02-28T05:09:44;99354.16;;;14.13
61189;BMP280;47054;39.716;2.904;2023-02-28T05:12:28;99360.63;;;14.12
61189;BMP280;47054;39.716;2.904;2023-02-28T05:15:14;99362.50;;;14.11
61189;BMP280;47054;39.716;2.904;2023-02-28T05:17:59;99359.84;;;14.11
61189;BMP280;47054;39.716;2.904;2023-02-28T05:20:43;99352.97;;;14.07
61189;BMP280;47054;39.716;2.904;2023-02-28T05:23:29;99367.06;;;14.11
61189;BMP280;47054;39.716;2.904;2023-02-28T05:26:13;99361.72;;;14.11
61189;BMP280;47054;39.716;2.904;2023-02-28T05:28:58;99363.66;;;14.10
61189;BMP280;47054;39.716;2.904;2023-02-28T05:31:42;99341.56;;;14.10
61189;BMP280;47054;39.716;2.904;2023-02-28T05:34:27;99356.00;;;14.09
61189;BMP280;47054;39.716;2.904;2023-02-28T05:37:12;99345.00;;;14.10
61189;BMP280;47054;39.716;2.904;2023-02-28T05:39:58;99354.88;;;14.10
61189;BMP280;47054;39.716;2.904;2023-02-28T05:42:42;99362.09;;;14.09
61189;BMP280;47054;39.716;2.904;2023-02-28T05:45:27;99343.78;;;14.08
61189;BMP280;47054;39.716;2.904;2023-02-28T05:48:12;99359.78;;;14.08
61189;BMP280;47054;39.716;2.904;2023-02-28T05:50:57;99368.53;;;14.08
61189;BMP280;47054;39.716;2.904;2023-02-28T05:53:42;99365.09;;;14.08
61189;BMP280;47054;39.716;2.904;2023-02-28T05:56:27;99354.84;;;14.06
61189;BMP280;47054;39.716;2.904;2023-02-28T05:59:13;99360.94;;;14.07
61189;BMP280;47054;39.716;2.904;2023-02-28T06:01:57;99359.41;;;14.06
61189;BMP280;47054;39.716;2.904;2023-02-28T06:04:43;99354.84;;;14.06
61189;BMP280;47054;39.716;2.904;2023-02-28T06:07:27;99335.75;;;14.04
61189;BMP280;47054;39.716;2.904;2023-02-28T06:10:13;99333.88;;;14.05
61189;BMP280;47054;39.716;2.904;2023-02-28T06:13:00;99371.94;;;14.05
61189;BMP280;47054;39.716;2.904;2023-02-28T06:15:46;99344.91;;;14.03
61189;BMP280;47054;39.716;2.904;2023-02-28T06:18:31;99354.78;;;14.03
61189;BMP280;47054;39.716;2.904;2023-02-28T06:21:16;99350.97;;;14.04
61189;BMP280;47054;39.716;2.904;2023-02-28T06:24:01;99354.00;;;14.02
61189;BMP280;47054;39.716;2.904;2023-02-28T06:26:46;99355.91;;;14.02
61189;BMP280;47054;39.716;2.904;2023-02-28T06:29:32;99362.78;;;14.03
61189;BMP280;47054;39.716;2.904;2023-02-28T06:32:16;99365.78;;;14.01
61189;BMP280;47054;39.716;2.904;2023-02-28T06:35:02;99368.13;;;14.03
61189;BMP280;47054;39.716;2.904;2023-02-28T06:37:47;99365.78;;;14.01
61189;BMP280;47054;39.716;2.904;2023-02-28T06:40:31;99357.03;;;14.01
61189;BMP280;47054;39.716;2.904;2023-02-28T06:43:20;99352.88;;;14.00
61189;BMP280;47054;39.716;2.904;2023-02-28T06:46:07;99379.50;;;14.00
61189;BMP280;47054;39.716;2.904;2023-02-28T06:48:52;99400.06;;;13.99
61189;BMP280;47054;39.716;2.904;2023-02-28T06:51:38;99382.16;;;14.00
61189;BMP280;47054;39.716;2.904;2023-02-28T06:54:23;99379.06;;;13.98
61189;BMP280;47054;39.716;2.904;2023-02-28T06:57:08;99364.97;;;13.97
61189;BMP280;47054;39.716;2.904;2023-02-28T06:59:52;99380.94;;;13.93
61189;BMP280;47054;39.716;2.904;2023-02-28T07:02:37;99381.75;;;13.98
61189;BMP280;47054;39.716;2.904;2023-02-28T07:05:22;99384.78;;;13.96
61189;BMP280;47054;39.716;2.904;2023-02-28T07:08:06;99381.34;;;13.96
61189;BMP280;47054;39.716;2.904;2023-02-28T07:10:52;99387.44;;;13.96
61189;BMP280;47054;39.716;2.904;2023-02-28T07:13:37;99393.13;;;13.95
61189;BMP280;47054;39.716;2.904;2023-02-28T07:16:23;99399.22;;;13.95
61189;BMP280;47054;39.716;2.904;2023-02-28T07:19:08;99406.47;;;13.95
61189;BMP280;47054;39.716;2.904;2023-02-28T07:21:52;99400.34;;;13.94
61189;BMP280;47054;39.716;2.904;2023-02-28T07:24:37;99432.34;;;13.94
61189;BMP280;47054;39.716;2.904;2023-02-28T07:27:22;99431.56;;;13.93
61189;BMP280;47054;39.716;2.904;2023-02-28T07:30:10;99429.66;;;13.94
61189;BMP280;47054;39.716;2.904;2023-02-28T07:32:55;99423.56;;;13.93
61189;BMP280;47054;39.716;2.904;2023-02-28T07:35:40;99428.91;;;13.93
61189;BMP280;47054;39.716;2.904;2023-02-28T07:38:24;99428.13;;;13.93
61189;BMP280;47054;39.716;2.904;2023-02-28T07:41:10;99436.81;;;13.90
61189;BMP280;47054;39.716;2.904;2023-02-28T07:43:54;99436.03;;;13.89
61189;BMP280;47054;39.716;2.904;2023-02-28T07:46:41;99417.34;;;13.82
61189;BMP280;47054;39.716;2.904;2023-02-28T07:49:25;99441.03;;;13.91
61189;BMP280;47054;39.716;2.904;2023-02-28T07:52:10;99451.34;;;13.93
61189;BMP280;47054;39.716;2.904;2023-02-28T07:54:54;99446.34;;;13.91
61189;BMP280;47054;39.716;2.904;2023-02-28T07:57:40;99463.91;;;13.92
61189;BMP280;47054;39.716;2.904;2023-02-28T08:00:24;99437.97;;;13.89
61189;BMP280;47054;39.716;2.904;2023-02-28T08:03:11;99458.13;;;13.90
61189;BMP280;47054;39.716;2.904;2023-02-28T08:05:57;99477.94;;;13.89
61189;BMP280;47054;39.716;2.904;2023-02-28T08:08:41;99449.75;;;13.88
61189;BMP280;47054;39.716;2.904;2023-02-28T08:11:26;99471.06;;;13.88
61189;BMP280;47054;39.716;2.904;2023-02-28T08:14:10;99462.31;;;13.87
61189;BMP280;47054;39.716;2.904;2023-02-28T08:16:55;99480.19;;;13.87
61189;BMP280;47054;39.716;2.904;2023-02-28T08:19:40;99464.97;;;13.87
61189;BMP280;47054;39.716;2.904;2023-02-28T08:22:24;99443.25;;;13.85
61189;BMP280;47054;39.716;2.904;2023-02-28T08:25:09;99466.09;;;13.86
61189;BMP280;47054;39.716;2.904;2023-02-28T08:27:54;99462.66;;;13.86
61189;BMP280;47054;39.716;2.904;2023-02-28T08:30:38;99447.81;;;13.85
61189;BMP280;47054;39.716;2.904;2023-02-28T08:33:26;99471.34;;;13.83
61189;BMP280;47054;39.716;2.904;2023-02-28T08:36:11;99480.09;;;13.83
61189;BMP280;47054;39.716;2.904;2023-02-28T08:38:57;99472.50;;;13.82
61189;BMP280;47054;39.716;2.904;2023-02-28T08:41:42;99483.16;;;13.82
61189;BMP280;47054;39.716;2.904;2023-02-28T08:44:26;99482.00;;;13.83
61189;BMP280;47054;39.716;2.904;2023-02-28T08:47:11;99493.06;;;13.81
61189;BMP280;47054;39.716;2.904;2023-02-28T08:49:55;99481.94;;;13.79
61189;BMP280;47054;39.716;2.904;2023-02-28T08:52:42;99496.50;;;13.82
61189;BMP280;47054;39.716;2.904;2023-02-28T08:55:27;99496.81;;;13.80
61189;BMP280;47054;39.716;2.904;2023-02-28T08:58:12;99510.16;;;13.80
61189;BMP280;47054;39.716;2.904;2023-02-28T09:00:56;99492.56;;;13.76
61189;BMP280;47054;39.716;2.904;2023-02-28T09:03:42;99502.94;;;13.81
61189;BMP280;47054;39.716;2.904;2023-02-28T09:06:27;99523.47;;;13.80
61189;BMP280;47054;39.716;2.904;2023-02-28T09:09:11;99495.63;;;13.78
61189;BMP280;47054;39.716;2.904;2023-02-28T09:11:57;99523.06;;;13.78
61189;BMP280;47054;39.716;2.904;2023-02-28T09:14:41;99539.81;;;13.79
61189;BMP280;47054;39.716;2.904;2023-02-28T09:17:26;99547.75;;;13.75
61189;BMP280;47054;39.716;2.904;2023-02-28T09:20:11;99548.09;;;13.74
61189;BMP280;47054;39.716;2.904;2023-02-28T09:22:56;99556.91;;;13.78
61189;BMP280;47054;39.716;2.904;2023-02-28T09:25:53;99563.03;;;13.78
61189;BMP280;47054;39.716;2.904;2023-02-28T09:28:38;99559.53;;;13.74
61189;BMP280;47054;39.716;2.904;2023-02-28T09:31:25;99567.56;;;13.78
61189;BMP280;47054;39.716;2.904;2023-02-28T09:34:10;99577.81;;;13.76
61189;BMP280;47054;39.716;2.904;2023-02-28T09:36:54;99570.56;;;13.76
61189;BMP280;47054;39.716;2.904;2023-02-28T09:39:39;99575.50;;;13.74
61189;BMP280;47054;39.716;2.904;2023-02-28T09:42:31;99579.72;;;13.75
61189;BMP280;47054;39.716;2.904;2023-02-28T09:45:24;99596.25;;;13.65
61189;BMP280;47054;39.716;2.904;2023-02-28T09:48:14;99584.56;;;13.70
61189;BMP280;47054;39.716;2.904;2023-02-28T09:51:05;99598.63;;;13.70
61189;BMP280;47054;39.716;2.904;2023-02-28T09:53:54;99586.88;;;13.71
61189;BMP280;47054;39.716;2.904;2023-02-28T09:56:42;99583.06;;;13.72
61189;BMP280;47054;39.716;2.904;2023-02-28T10:06:20;99595.97;;;13.70
61189;BMP280;47054;39.716;2.904;2023-02-28T10:09:08;99600.13;;;13.68
61189;BMP280;47054;39.716;2.904;2023-02-28T10:12:01;99607.75;;;13.69
61189;BMP280;47054;39.716;2.904;2023-02-28T10:14:49;99606.63;;;13.70
61189;BMP280;47054;39.716;2.904;2023-02-28T10:17:41;99597.53;;;13.71
61189;BMP280;47054;39.716;2.904;2023-02-28T10:20:28;99611.94;;;13.70
61189;BMP280;47054;39.716;2.904;2023-02-28T10:26:14;99632.16;;;13.71
61189;BMP280;47054;39.716;2.904;2023-02-28T10:29:03;99638.59;;;13.70
61189;BMP280;47054;39.716;2.904;2023-02-28T10:31:48;99627.19;;;13.70
61189;BMP280;47054;39.716;2.904;2023-02-28T10:34:32;99625.28;;;13.70
61189;BMP280;47054;39.716;2.904;2023-02-28T10:37:19;99636.69;;;13.71
61189;BMP280;47054;39.716;2.904;2023-02-28T10:40:05;99653.47;;;13.71
61189;BMP280;47054;39.716;2.904;2023-02-28T10:42:58;99657.66;;;13.72
61189;BMP280;47054;39.716;2.904;2023-02-28T10:45:59;99660.69;;;13.71
61189;BMP280;47054;39.716;2.904;2023-02-28T10:48:50;99668.66;;;13.71
61189;BMP280;47054;39.716;2.904;2023-02-28T10:51:38;99666.91;;;13.59
61189;BMP280;47054;39.716;2.904;2023-02-28T10:54:34;99686.53;;;13.70
61189;BMP280;47054;39.716;2.904;2023-02-28T10:57:22;99693.00;;;13.69
61189;BMP280;47054;39.716;2.904;2023-02-28T11:00:32;99696.44;;;13.70
61189;BMP280;47054;39.716;2.904;2023-02-28T11:06:28;99710.88;;;13.69
61189;BMP280;47054;39.716;2.904;2023-02-28T11:09:30;99717.34;;;13.68
61189;BMP280;47054;39.716;2.904;2023-02-28T11:12:38;99708.47;;;13.64
61189;BMP280;47054;39.716;2.904;2023-02-28T11:15:31;99723.78;;;13.67
61189;BMP280;47054;39.716;2.904;2023-02-28T11:18:27;99729.88;;;13.67
61189;BMP280;47054;39.716;2.904;2023-02-28T11:21:32;99725.34;;;13.68
61189;BMP280;47054;39.716;2.904;2023-02-28T11:24:36;99726.44;;;13.67
61189;BMP280;47054;39.716;2.904;2023-02-28T11:30:45;99727.13;;;13.64
61189;BMP280;47054;39.716;2.904;2023-02-28T11:36:31;99731.34;;;13.65
61189;BMP280;47054;39.716;2.904;2023-02-28T11:39:17;99725.59;;;13.63
61189;BMP280;47054;39.716;2.904;2023-02-28T11:55:24;99724.03;;;13.62
61189;BMP280;47054;39.716;2.904;2023-02-28T11:58:47;99721.75;;;13.60
61189;BMP280;47054;39.716;2.904;2023-02-28T12:07:15;99737.25;;;13.55
61189;BMP280;47054;39.716;2.904;2023-02-28T12:27:51;99742.63;;;13.58
61189;BMP280;47054;39.716;2.904;2023-02-28T12:30:43;99753.28;;;13.58
61189;BMP280;47054;39.716;2.904;2023-02-28T12:33:34;99755.59;;;13.60
61189;BMP280;47054;39.716;2.904;2023-02-28T12:36:21;99763.59;;;13.60
61189;BMP280;47054;39.716;2.904;2023-02-28T12:39:11;99754.47;;;13.61
61189;BMP280;47054;39.716;2.904;2023-02-28T12:42:40;99755.59;;;13.60
61189;BMP280;47054;39.716;2.904;2023-02-28T12:45:08;99772.34;;;13.60
61189;BMP280;47054;39.716;2.904;2023-02-28T12:48:04;99777.31;;;13.62
61189;BMP280;47054;39.716;2.904;2023-02-28T12:50:50;99765.06;;;13.57
61189;BMP280;47054;39.716;2.904;2023-02-28T12:53:58;99758.66;;;13.62
61189;BMP280;47054;39.716;2.904;2023-02-28T12:59:53;99763.59;;;13.60
61189;BMP280;47054;39.716;2.904;2023-02-28T13:11:39;99793.66;;;13.60
61189;BMP280;47054;39.716;2.904;2023-02-28T13:17:21;99799.75;;;13.61
61189;BMP280;47054;39.716;2.904;2023-02-28T13:20:21;99793.66;;;13.60
61189;BMP280;47054;39.716;2.904;2023-02-28T13:23:38;99793.97;;;13.59
61189;BMP280;47054;39.716;2.904;2023-02-28T13:29:42;99800.09;;;13.59
61189;BMP280;47054;39.716;2.904;2023-02-28T13:32:31;99781.75;;;13.54
61189;BMP280;47054;39.716;2.904;2023-02-28T13:35:35;99795.91;;;13.58
61189;BMP280;47054;39.716;2.904;2023-02-28T13:38:24;99803.88;;;13.58
61189;BMP280;47054;39.716;2.904;2023-02-28T13:44:22;99801.97;;;13.59
61189;BMP280;47054;39.716;2.904;2023-02-28T13:47:20;99800.09;;;13.59
61189;BMP280;47054;39.716;2.904;2023-02-28T13:56:10;99800.44;;;13.58
61189;BMP280;47054;39.716;2.904;2023-02-28T13:59:19;99795.06;;;13.54
61189;BMP280;47054;39.716;2.904;2023-02-28T14:05:13;99799.16;;;13.52
61189;BMP280;47054;39.716;2.904;2023-02-28T14:08:06;99798.81;;;13.53
61189;BMP280;47054;39.716;2.904;2023-02-28T14:11:05;99817.47;;;13.53
61189;BMP280;47054;39.716;2.904;2023-02-28T14:13:50;99812.91;;;13.54
61189;BMP280;47054;39.716;2.904;2023-02-28T14:16:46;99818.66;;;13.56
61189;BMP280;47054;39.716;2.904;2023-02-28T14:19:32;99817.78;;;13.52
61189;BMP280;47054;39.716;2.904;2023-02-28T14:25:33;99839.97;;;13.56
61189;BMP280;47054;39.716;2.904;2023-02-28T14:31:29;99855.63;;;13.57
61189;BMP280;47054;39.716;2.904;2023-02-28T14:37:20;99871.63;;;13.57
61189;BMP280;47054;39.716;2.904;2023-02-28T14:40:16;99875.03;;;13.58
61189;BMP280;47054;39.716;2.904;2023-02-28T14:43:04;99873.13;;;13.58
61189;BMP280;47054;39.716;2.904;2023-02-28T14:46:01;99888.34;;;13.58
61189;BMP280;47054;39.716;2.904;2023-02-28T14:48:48;99875.03;;;13.58
61189;BMP280;47054;39.716;2.904;2023-02-28T14:51:34;99881.88;;;13.59
61189;BMP280;47054;39.716;2.904;2023-02-28T14:54:21;99889.81;;;13.55
61189;BMP280;47054;39.716;2.904;2023-02-28T14:57:29;99884.53;;;13.59
61189;BMP280;47054;39.716;2.904;2023-02-28T15:00:17;99897.78;;;13.55
61189;BMP280;47054;39.716;2.904;2023-02-28T15:03:24;99896.34;;;13.58
61189;BMP280;47054;39.716;2.904;2023-02-28T15:06:14;99889.81;;;13.55
61189;BMP280;47054;39.716;2.904;2023-02-28T15:09:15;99910.44;;;13.58
61189;BMP280;47054;39.716;2.904;2023-02-28T15:12:01;99894.81;;;13.57
61189;BMP280;47054;39.716;2.904;2023-02-28T15:14:46;99908.91;;;13.57
61189;BMP280;47054;39.716;2.904;2023-02-28T15:17:31;99901.41;;;13.47
61189;BMP280;47054;39.716;2.904;2023-02-28T15:20:16;99917.28;;;13.59
61189;BMP280;47054;39.716;2.904;2023-02-28T15:23:02;99921.09;;;13.58
61189;BMP280;47054;39.716;2.904;2023-02-28T15:25:47;99921.84;;;13.59
61189;BMP280;47054;39.716;2.904;2023-02-28T15:28:32;99916.91;;;13.57
61189;BMP280;47054;39.716;2.904;2023-02-28T15:31:26;99918.00;;;13.56
61189;BMP280;47054;39.716;2.904;2023-02-28T15:34:38;99929.81;;;13.59
61189;BMP280;47054;39.716;2.904;2023-02-28T15:40:30;99927.94;;;13.59
61189;BMP280;47054;39.716;2.904;2023-02-28T15:43:18;99923.75;;;13.58
61189;BMP280;47054;39.716;2.904;2023-02-28T15:46:09;99926.41;;;13.58
61189;BMP280;47054;39.716;2.904;2023-02-28T15:48:55;99930.97;;;13.58
61189;BMP280;47054;39.716;2.904;2023-02-28T15:51:40;99937.06;;;13.58
61189;BMP280;47054;39.716;2.904;2023-02-28T15:54:32;99931.38;;;13.60
61189;BMP280;47054;39.716;2.904;2023-02-28T15:57:21;99930.59;;;13.59
61189;BMP280;47054;39.716;2.904;2023-02-28T16:00:12;99940.47;;;13.59
61189;BMP280;47054;39.716;2.904;2023-02-28T16:02:57;99938.59;;;13.59
61189;BMP280;47054;39.716;2.904;2023-02-28T16:05:41;99942.41;;;13.58
61189;BMP280;47054;39.716;2.904;2023-02-28T16:08:26;99938.59;;;13.59
61189;BMP280;47054;39.716;2.904;2023-02-28T16:11:10;99945.81;;;13.59
61189;BMP280;47054;39.716;2.904;2023-02-28T16:13:55;99943.94;;;13.59
61189;BMP280;47054;39.716;2.904;2023-02-28T16:16:43;99937.00;;;13.55
61189;BMP280;47054;39.716;2.904;2023-02-28T16:19:28;99945.81;;;13.59
61189;BMP280;47054;39.716;2.904;2023-02-28T16:22:13;99943.06;;;13.55
61189;BMP280;47054;39.716;2.904;2023-02-28T16:24:57;99955.72;;;13.58
61189;BMP280;47054;39.716;2.904;2023-02-28T16:27:43;99962.56;;;13.59
61189;BMP280;47054;39.716;2.904;2023-02-28T16:30:29;99972.13;;;13.60
61189;BMP280;47054;39.716;2.904;2023-02-28T16:33:17;99963.34;;;13.60
61189;BMP280;47054;39.716;2.904;2023-02-28T16:36:01;99964.44;;;13.59
61189;BMP280;47054;39.716;2.904;2023-02-28T16:38:47;99978.56;;;13.59
61189;BMP280;47054;39.716;2.904;2023-02-28T16:41:31;99974.00;;;13.60
61189;BMP280;47054;39.716;2.904;2023-02-28T16:44:27;99968.19;;;13.54
61189;BMP280;47054;39.716;2.904;2023-02-28T16:47:12;99983.38;;;13.54
61189;BMP280;47054;39.716;2.904;2023-02-28T16:49:57;99989.22;;;13.59
61189;BMP280;47054;39.716;2.904;2023-02-28T16:52:41;99975.88;;;13.59
61189;BMP280;47054;39.716;2.904;2023-02-28T16:55:26;99986.22;;;13.61
61189;BMP280;47054;39.716;2.904;2023-02-28T16:58:14;99985.00;;;13.58
61189;BMP280;47054;39.716;2.904;2023-02-28T17:00:59;99989.22;;;13.59
61189;BMP280;47054;39.716;2.904;2023-02-28T17:03:44;99991.09;;;13.59
61189;BMP280;47054;39.716;2.904;2023-02-28T17:06:29;99998.75;;;13.60
61189;BMP280;47054;39.716;2.904;2023-02-28T17:09:17;100001.44;;;13.60
61189;BMP280;47054;39.716;2.904;2023-02-28T17:12:02;100002.22;;;13.61
61189;BMP280;47054;39.716;2.904;2023-02-28T17:14:47;100004.09;;;13.60
61189;BMP280;47054;39.716;2.904;2023-02-28T17:17:31;100004.09;;;13.60
61189;BMP280;47054;39.716;2.904;2023-02-28T17:20:19;100021.97;;;13.60
61189;BMP280;47054;39.716;2.904;2023-02-28T17:23:08;100018.19;;;13.61
61189;BMP280;47054;39.716;2.904;2023-02-28T17:25:53;100020.06;;;13.60
61189;BMP280;47054;39.716;2.904;2023-02-28T17:28:42;100030.72;;;13.60
61189;BMP280;47054;39.716;2.904;2023-02-28T17:31:27;100021.97;;;13.60
61189;BMP280;47054;39.716;2.904;2023-02-28T17:34:12;100033.72;;;13.59
61189;BMP280;47054;39.716;2.904;2023-02-28T17:37:02;100038.97;;;13.55
61189;BMP280;47054;39.716;2.904;2023-02-28T17:39:47;100043.63;;;13.58
61189;BMP280;47054;39.716;2.904;2023-02-28T17:42:31;100053.13;;;13.59
61189;BMP280;47054;39.716;2.904;2023-02-28T17:45:16;100054.69;;;13.60
61189;BMP280;47054;39.716;2.904;2023-02-28T17:48:00;100056.59;;;13.60
61189;BMP280;47054;39.716;2.904;2023-02-28T17:50:45;100062.34;;;13.62
61189;BMP280;47054;39.716;2.904;2023-02-28T17:53:30;100056.59;;;13.60
61189;BMP280;47054;39.716;2.904;2023-02-28T17:56:19;100065.34;;;13.60
61189;BMP280;47054;39.716;2.904;2023-02-28T17:59:04;100072.56;;;13.60
61189;BMP280;47054;39.716;2.904;2023-02-28T18:01:48;100073.34;;;13.60
61189;BMP280;47054;39.716;2.904;2023-02-28T18:04:33;100079.47;;;13.61
61189;BMP280;47054;39.716;2.904;2023-02-28T18:07:19;100086.31;;;13.62
61189;BMP280;47054;39.716;2.904;2023-02-28T18:10:05;100101.56;;;13.61
61189;BMP280;47054;39.716;2.904;2023-02-28T18:12:51;100098.09;;;13.61
61189;BMP280;47054;39.716;2.904;2023-02-28T18:15:36;100104.22;;;13.61
61189;BMP280;47054;39.716;2.904;2023-02-28T18:18:20;100107.19;;;13.60
61189;BMP280;47054;39.716;2.904;2023-02-28T18:21:06;100107.63;;;13.62